Time;durP1;ratioP1;P1;durP2;ratioP2;P2;SDS_P1;SDS_P2;PMS_P1;PMS_P2;Temp;Humidity;BMP_temperature;BMP_pressure;BME280_temperature;BME280_humidity;BME280_pressure;Samples;Min_cycle;Max_cycle;Signal;HPM_P1;HPM_P2
2023/12/19 00:00:25;;;;;;;42.33;21.48;;;8.00;99.90;;;;;;5050809;28;20465;-80
2023/12/19 00:02:51;;;;;;;42.55;22.98;;;7.90;99.90;;;;;;5034420;28;20037;-78
2023/12/19 00:05:16;;;;;;;36.33;20.58;;;8.00;99.90;;;;;;5051235;28;20028;-78
2023/12/19 00:07:42;;;;;;;39.58;20.95;;;8.30;99.90;;;;;;5048614;28;20025;-79
2023/12/19 00:10:08;;;;;;;37.55;19.25;;;8.30;99.90;;;;;;5047259;28;20033;-79
2023/12/19 00:12:34;;;;;;;38.63;19.95;;;8.00;99.90;;;;;;5082893;28;20033;-78
2023/12/19 00:14:59;;;;;;;36.90;19.50;;;8.10;99.90;;;;;;5084655;28;20044;-78
2023/12/19 00:17:25;;;;;;;42.08;21.63;;;8.10;99.90;;;;;;5051449;28;20037;-78
2023/12/19 00:19:50;;;;;;;41.25;19.98;;;8.40;99.90;;;;;;5049304;28;20075;-79
2023/12/19 00:22:16;;;;;;;36.78;19.27;;;8.10;99.90;;;;;;5029406;28;20396;-79
2023/12/19 00:24:42;;;;;;;39.70;19.90;;;8.10;99.90;;;;;;5050928;28;20117;-78
2023/12/19 00:27:07;;;;;;;40.60;19.98;;;8.30;99.90;;;;;;5049627;28;20029;-78
2023/12/19 00:29:33;;;;;;;39.15;20.50;;;8.30;99.90;;;;;;5046477;28;20067;-78
2023/12/19 00:31:58;;;;;;;36.60;19.60;;;8.20;99.90;;;;;;5045638;28;20143;-78
2023/12/19 00:34:24;;;;;;;39.97;21.10;;;8.50;99.90;;;;;;5048577;28;20037;-79
2023/12/19 00:36:50;;;;;;;39.38;20.63;;;8.20;99.90;;;;;;5048448;28;20110;-79
2023/12/19 00:39:16;;;;;;;40.65;21.33;;;8.20;99.90;;;;;;5041905;28;20044;-79
2023/12/19 00:41:41;;;;;;;39.17;18.98;;;8.20;99.90;;;;;;5032946;28;20037;-78
2023/12/19 00:44:07;;;;;;;41.13;20.98;;;8.20;99.90;;;;;;5047931;28;20068;-78
2023/12/19 00:46:33;;;;;;;41.10;20.67;;;8.20;99.90;;;;;;5045533;28;20496;-78
2023/12/19 00:48:59;;;;;;;41.70;20.73;;;8.20;99.90;;;;;;5048343;28;20036;-78
2023/12/19 00:51:24;;;;;;;43.03;20.25;;;8.30;99.90;;;;;;5083933;28;20115;-79
2023/12/19 00:53:50;;;;;;;35.60;19.85;;;8.30;99.90;;;;;;5080052;28;20086;-79
2023/12/19 00:56:15;;;;;;;41.42;21.10;;;8.40;99.90;;;;;;5050323;28;20034;-78
2023/12/19 00:58:43;;;;;;;42.63;20.30;;;8.30;99.90;;;;;;5084055;28;20040;-79
2023/12/19 01:01:09;;;;;;;39.15;20.50;;;8.20;99.90;;;;;;5045324;28;20033;-79
2023/12/19 01:03:35;;;;;;;36.10;19.08;;;8.40;99.90;;;;;;5045294;28;20052;-80
2023/12/19 01:06:02;;;;;;;38.85;20.40;;;8.30;99.90;;;;;;5048257;28;20399;-79
2023/12/19 01:08:29;;;;;;;36.53;19.42;;;8.20;99.90;;;;;;5031906;28;20045;-79
2023/12/19 01:10:55;;;;;;;37.08;19.20;;;8.20;99.90;;;;;;5046727;28;20531;-79
2023/12/19 01:13:21;;;;;;;34.22;18.95;;;8.20;99.90;;;;;;5047342;28;20041;-79
2023/12/19 01:15:47;;;;;;;33.65;18.60;;;8.20;99.90;;;;;;5049522;28;20040;-78
2023/12/19 01:18:12;;;;;;;32.60;18.50;;;8.20;99.90;;;;;;5046718;28;20570;-78
2023/12/19 01:20:39;;;;;;;33.63;17.88;;;8.60;99.90;;;;;;5044992;28;20048;-77
2023/12/19 01:23:05;;;;;;;32.83;18.52;;;8.20;99.90;;;;;;5062082;28;20064;-78
2023/12/19 01:25:30;;;;;;;33.05;17.75;;;8.30;99.90;;;;;;5046252;28;20405;-79
2023/12/19 01:27:56;;;;;;;35.35;18.10;;;8.30;99.90;;;;;;5046909;28;20049;-78
2023/12/19 01:30:22;;;;;;;32.95;17.65;;;8.20;99.90;;;;;;5045689;28;20489;-78
2023/12/19 01:32:48;;;;;;;30.63;17.38;;;8.30;99.90;;;;;;5045542;28;20064;-78
2023/12/19 01:35:14;;;;;;;34.80;18.63;;;8.30;99.90;;;;;;5075172;28;20033;-79
2023/12/19 01:37:42;;;;;;;30.45;17.27;;;8.20;99.90;;;;;;5048149;28;20048;-79
2023/12/19 01:40:08;;;;;;;30.88;17.25;;;8.40;99.90;;;;;;5041375;28;20044;-79
2023/12/19 01:42:34;;;;;;;32.25;17.13;;;8.20;99.90;;;;;;5034478;28;20041;-80
2023/12/19 01:45:11;;;;;;;28.20;16.30;;;8.20;99.90;;;;;;5080621;28;20458;-79
2023/12/19 01:47:43;;;;;;;30.50;15.70;;;8.20;99.90;;;;;;5040079;28;20120;-79
2023/12/19 01:50:13;;;;;;;31.42;16.95;;;8.50;99.90;;;;;;5048621;28;20551;-78
2023/12/19 01:52:42;;;;;;;26.85;15.98;;;8.20;99.90;;;;;;5046817;28;20072;-78
2023/12/19 01:55:08;;;;;;;27.17;15.50;;;8.20;99.90;;;;;;5045138;28;20042;-79
2023/12/19 01:57:35;;;;;;;26.65;15.90;;;8.20;99.90;;;;;;5048926;28;20514;-78
2023/12/19 02:00:01;;;;;;;27.92;15.50;;;8.30;99.90;;;;;;5042937;28;20139;-78
2023/12/19 02:02:27;;;;;;;27.77;15.77;;;8.20;99.90;;;;;;5043704;28;20045;-79
2023/12/19 02:04:58;;;;;;;28.25;15.45;;;8.20;99.90;;;;;;5026096;28;20139;-78
2023/12/19 02:07:23;;;;;;;23.90;14.63;;;8.30;99.90;;;;;;5046311;28;20039;-78
2023/12/19 02:09:51;;;;;;;24.58;14.50;;;8.60;99.90;;;;;;5041711;28;20037;-78
2023/12/19 02:12:17;;;;;;;26.88;14.73;;;8.30;99.90;;;;;;5050720;28;20422;-79
2023/12/19 02:14:43;;;;;;;24.20;13.95;;;8.20;99.90;;;;;;5036824;28;20037;-79
2023/12/19 02:17:11;;;;;;;25.58;14.45;;;8.30;99.90;;;;;;5049302;28;20072;-78
2023/12/19 02:19:44;;;;;;;24.67;14.15;;;8.20;99.90;;;;;;5046686;28;20040;-79
2023/12/19 02:22:10;;;;;;;21.67;13.73;;;8.30;99.90;;;;;;5047274;28;20420;-78
2023/12/19 02:24:36;;;;;;;24.23;13.82;;;8.40;99.90;;;;;;5034423;28;20041;-78
2023/12/19 02:27:02;;;;;;;23.35;13.82;;;8.30;99.90;;;;;;5054197;28;20614;-78
2023/12/19 02:29:28;;;;;;;26.02;14.55;;;8.30;99.90;;;;;;5048051;28;20048;-77
2023/12/19 02:31:54;;;;;;;26.38;14.90;;;8.30;99.90;;;;;;5052859;28;20037;-79
2023/12/19 02:34:19;;;;;;;22.83;13.88;;;8.50;99.90;;;;;;5034555;28;20037;-78
2023/12/19 02:36:45;;;;;;;24.55;13.63;;;8.30;99.90;;;;;;5049801;28;20131;-79
2023/12/19 02:39:10;;;;;;;24.92;13.77;;;8.50;99.90;;;;;;5045742;28;20419;-78
2023/12/19 02:41:36;;;;;;;24.73;14.05;;;8.40;99.90;;;;;;5047108;28;20449;-80
2023/12/19 02:44:02;;;;;;;21.02;12.55;;;8.50;99.90;;;;;;5052174;28;20124;-78
2023/12/19 02:46:27;;;;;;;24.77;14.35;;;8.30;99.90;;;;;;5079000;28;20041;-78
2023/12/19 02:48:53;;;;;;;23.83;13.55;;;8.40;99.90;;;;;;5049139;28;20051;-79
2023/12/19 02:51:19;;;;;;;24.50;13.38;;;8.60;99.90;;;;;;5042892;28;20037;-79
2023/12/19 02:53:45;;;;;;;22.75;12.82;;;8.30;99.90;;;;;;5047345;28;20037;-78
2023/12/19 02:56:11;;;;;;;20.88;12.75;;;8.50;99.90;;;;;;5034215;28;20079;-77
2023/12/19 02:58:37;;;;;;;22.15;13.40;;;8.30;99.90;;;;;;5051828;28;20068;-79
2023/12/19 03:01:06;;;;;;;21.58;13.23;;;8.40;99.90;;;;;;5047699;28;20612;-79
2023/12/19 03:03:32;;;;;;;21.67;13.30;;;8.30;99.90;;;;;;5049169;28;20037;-78
2023/12/19 03:05:57;;;;;;;23.33;13.25;;;8.40;99.90;;;;;;5035183;28;20025;-78
2023/12/19 03:08:23;;;;;;;23.02;12.82;;;8.30;99.90;;;;;;5044829;28;20442;-79
2023/12/19 03:10:49;;;;;;;24.75;14.45;;;8.50;99.90;;;;;;5045975;28;20047;-79
2023/12/19 03:13:14;;;;;;;22.48;13.38;;;8.40;99.90;;;;;;5048161;28;20064;-79
2023/12/19 03:15:40;;;;;;;25.23;14.43;;;8.20;99.90;;;;;;5044742;28;20037;-78
2023/12/19 03:18:06;;;;;;;25.33;13.55;;;8.60;99.90;;;;;;5031191;28;20554;-79
2023/12/19 03:20:32;;;;;;;22.73;13.02;;;8.40;99.90;;;;;;5043028;28;20048;-81
2023/12/19 03:22:58;;;;;;;21.23;12.90;;;8.20;99.90;;;;;;5051073;28;20147;-78
2023/12/19 03:25:24;;;;;;;20.45;13.00;;;8.40;99.90;;;;;;5029354;28;20034;-79
2023/12/19 03:27:49;;;;;;;21.00;12.50;;;8.20;99.90;;;;;;5050111;28;20045;-79
2023/12/19 03:30:15;;;;;;;22.23;12.77;;;8.10;99.90;;;;;;5051464;28;20041;-79
2023/12/19 03:32:40;;;;;;;21.77;13.18;;;8.10;99.90;;;;;;5034501;28;20041;-79
2023/12/19 03:35:07;;;;;;;21.88;13.63;;;8.20;99.90;;;;;;5053816;28;20025;-78
2023/12/19 03:37:33;;;;;;;21.83;13.85;;;8.10;99.90;;;;;;5050489;28;20051;-78
2023/12/19 03:39:59;;;;;;;20.42;13.05;;;8.40;99.90;;;;;;5050677;28;20116;-78
2023/12/19 03:42:24;;;;;;;18.83;11.93;;;8.10;99.90;;;;;;5049794;28;20134;-79
2023/12/19 03:44:50;;;;;;;20.27;12.38;;;8.10;99.90;;;;;;5035183;28;20610;-79
2023/12/19 03:47:16;;;;;;;22.65;13.65;;;8.00;99.90;;;;;;5049156;28;20411;-79
2023/12/19 03:49:41;;;;;;;22.73;13.20;;;8.10;99.90;;;;;;5045056;28;20038;-79
2023/12/19 03:52:08;;;;;;;19.10;12.15;;;7.90;99.90;;;;;;5048485;28;20136;-79
2023/12/19 03:54:34;;;;;;;22.75;12.75;;;7.90;99.90;;;;;;5050649;28;20537;-78
2023/12/19 03:56:59;;;;;;;20.00;13.30;;;7.90;99.90;;;;;;5048177;28;20128;-79
2023/12/19 03:59:25;;;;;;;20.85;12.52;;;8.10;99.90;;;;;;5051457;28;20056;-78
2023/12/19 04:01:55;;;;;;;18.95;11.95;;;7.90;99.90;;;;;;5050373;28;20040;-78
2023/12/19 04:04:21;;;;;;;20.92;11.18;;;7.90;99.90;;;;;;5048546;28;20041;-78
2023/12/19 04:06:46;;;;;;;17.75;11.20;;;8.00;99.90;;;;;;5032199;28;20437;-79
2023/12/19 04:09:12;;;;;;;17.85;10.88;;;7.90;99.90;;;;;;5050014;28;20044;-78
2023/12/19 04:11:46;;;;;;;16.95;9.93;;;8.00;99.90;;;;;;5033995;28;20076;-79
2023/12/19 04:14:12;;;;;;;16.90;11.02;;;7.90;99.90;;;;;;5047159;28;20501;-80
2023/12/19 04:16:38;;;;;;;15.18;9.90;;;8.10;99.90;;;;;;5049543;28;20041;-79
2023/12/19 04:19:03;;;;;;;15.02;10.13;;;7.90;99.90;;;;;;5049797;28;20043;-79
2023/12/19 04:21:29;;;;;;;15.13;9.82;;;7.80;99.90;;;;;;5029828;28;20056;-79
2023/12/19 04:23:55;;;;;;;15.27;9.70;;;7.90;99.90;;;;;;5072182;28;20070;-80
2023/12/19 04:26:21;;;;;;;12.82;8.50;;;7.90;99.90;;;;;;5081292;28;20033;-79
2023/12/19 04:28:47;;;;;;;14.07;9.27;;;7.80;99.90;;;;;;5073857;28;20116;-80
2023/12/19 04:31:13;;;;;;;14.27;8.43;;;7.80;99.90;;;;;;5048650;28;20033;-79
2023/12/19 04:33:39;;;;;;;14.70;8.13;;;7.80;99.90;;;;;;5025011;28;20049;-80
2023/12/19 04:36:09;;;;;;;14.93;8.73;;;7.90;99.90;;;;;;5047734;28;20032;-79
2023/12/19 04:38:36;;;;;;;12.30;8.10;;;7.80;99.90;;;;;;5046021;28;20051;-79
2023/12/19 04:41:03;;;;;;;15.15;9.20;;;7.80;99.90;;;;;;5050058;28;20550;-79
2023/12/19 04:43:28;;;;;;;16.65;8.98;;;7.80;99.90;;;;;;5049716;28;20519;-80
2023/12/19 04:45:54;;;;;;;15.02;9.05;;;7.90;99.90;;;;;;5030658;28;20132;-79
2023/12/19 04:48:20;;;;;;;15.65;8.57;;;8.10;99.90;;;;;;5050154;28;20052;-80
2023/12/19 04:50:45;;;;;;;14.05;8.88;;;7.90;99.90;;;;;;5049592;28;20076;-79
2023/12/19 04:53:11;;;;;;;15.32;9.10;;;7.80;99.90;;;;;;5048858;28;20037;-80
2023/12/19 04:55:36;;;;;;;14.43;8.85;;;7.80;99.90;;;;;;5045852;28;20041;-79
2023/12/19 04:58:03;;;;;;;17.25;9.20;;;7.80;99.90;;;;;;5047757;28;20447;-79
2023/12/19 05:00:29;;;;;;;13.13;7.85;;;7.80;99.90;;;;;;5045993;28;20044;-79
2023/12/19 05:02:54;;;;;;;15.85;9.50;;;7.80;99.90;;;;;;5044343;28;20416;-79
2023/12/19 05:05:20;;;;;;;17.67;9.55;;;7.80;99.90;;;;;;5046208;28;20029;-79
2023/12/19 05:07:46;;;;;;;15.43;9.27;;;7.80;99.90;;;;;;5046871;28;20033;-79
2023/12/19 05:10:12;;;;;;;13.38;8.10;;;7.80;99.90;;;;;;5046366;28;20123;-79
2023/12/19 05:12:38;;;;;;;12.63;7.75;;;8.00;99.90;;;;;;5046085;28;20028;-79
2023/12/19 05:15:04;;;;;;;13.45;7.47;;;7.90;99.90;;;;;;5046884;28;20040;-79
2023/12/19 05:17:30;;;;;;;10.77;6.97;;;7.80;99.90;;;;;;5046542;28;20045;-78
2023/12/19 05:19:56;;;;;;;11.75;7.32;;;7.80;99.90;;;;;;5044742;28;20515;-78
2023/12/19 05:22:21;;;;;;;11.90;7.05;;;7.90;99.90;;;;;;5042996;28;20123;-79
2023/12/19 05:24:47;;;;;;;10.98;6.70;;;7.90;99.90;;;;;;5079634;28;20041;-78
2023/12/19 05:27:13;;;;;;;10.98;7.30;;;7.80;99.90;;;;;;5049376;28;20040;-79
2023/12/19 05:29:38;;;;;;;11.35;6.95;;;7.80;99.90;;;;;;5049224;28;20064;-79
2023/12/19 05:32:05;;;;;;;12.48;7.18;;;7.90;99.90;;;;;;5042131;28;20497;-78
2023/12/19 05:34:30;;;;;;;11.38;6.88;;;7.80;99.90;;;;;;5042617;28;20061;-78
2023/12/19 05:36:56;;;;;;;9.85;6.40;;;7.90;99.90;;;;;;5047623;28;20067;-78
2023/12/19 05:39:22;;;;;;;11.80;7.13;;;7.90;99.90;;;;;;5049433;28;20396;-78
2023/12/19 05:41:48;;;;;;;10.35;7.13;;;7.90;99.90;;;;;;5046708;28;20095;-79
2023/12/19 05:44:13;;;;;;;10.35;6.50;;;8.00;99.90;;;;;;5044113;28;20033;-79
2023/12/19 05:46:39;;;;;;;9.77;6.13;;;7.90;99.90;;;;;;5038275;28;20511;-79
2023/12/19 05:49:08;;;;;;;10.80;6.47;;;7.90;99.90;;;;;;5048511;28;20496;-78
2023/12/19 05:51:38;;;;;;;9.60;5.90;;;7.90;99.90;;;;;;5048412;28;20033;-79
2023/12/19 05:54:04;;;;;;;10.43;6.45;;;8.10;99.90;;;;;;5046000;28;20049;-79
2023/12/19 05:56:30;;;;;;;10.52;6.40;;;7.90;99.90;;;;;;5077989;28;20053;-78
2023/12/19 05:58:56;;;;;;;9.43;5.82;;;7.90;99.90;;;;;;5048678;28;20033;-78
2023/12/19 06:01:21;;;;;;;11.32;6.78;;;8.20;99.90;;;;;;5048276;28;20041;-78
2023/12/19 06:03:47;;;;;;;9.88;6.03;;;7.90;99.90;;;;;;5047759;28;20037;-78
2023/12/19 06:06:14;;;;;;;9.48;5.93;;;8.00;99.90;;;;;;5077905;28;20040;-79
2023/12/19 06:08:40;;;;;;;8.77;6.28;;;8.00;99.90;;;;;;5075650;28;20033;-79
2023/12/19 06:11:06;;;;;;;9.40;5.82;;;8.20;99.90;;;;;;5046383;28;20541;-79
2023/12/19 06:13:32;;;;;;;10.05;6.40;;;8.20;99.90;;;;;;5048421;28;20052;-77
2023/12/19 06:15:57;;;;;;;9.43;6.47;;;8.00;99.90;;;;;;5043433;28;20032;-79
2023/12/19 06:18:23;;;;;;;9.98;6.13;;;8.00;99.90;;;;;;5049119;28;20062;-79
2023/12/19 06:20:50;;;;;;;12.85;7.18;;;8.00;99.90;;;;;;5038681;28;20216;-78
2023/12/19 06:23:16;;;;;;;10.00;6.72;;;8.00;99.90;;;;;;5042892;28;20119;-78
2023/12/19 06:25:41;;;;;;;9.80;6.20;;;8.00;99.90;;;;;;5047007;28;20492;-79
2023/12/19 06:28:07;;;;;;;11.60;7.45;;;8.10;99.90;;;;;;5048949;28;20039;-78
2023/12/19 06:30:32;;;;;;;11.45;6.90;;;8.00;99.90;;;;;;5044601;28;20416;-78
2023/12/19 06:32:58;;;;;;;11.68;6.82;;;8.00;99.90;;;;;;5048927;28;20412;-79
2023/12/19 06:35:24;;;;;;;10.82;6.57;;;8.00;99.90;;;;;;5048927;28;20028;-78
2023/12/19 06:37:49;;;;;;;11.18;6.93;;;8.00;99.90;;;;;;5046424;28;20408;-79
2023/12/19 06:40:16;;;;;;;9.75;6.47;;;8.00;99.90;;;;;;5046721;28;20029;-79
2023/12/19 06:42:41;;;;;;;10.13;6.40;;;8.00;99.90;;;;;;5047488;28;20121;-78
2023/12/19 06:45:07;;;;;;;11.18;6.50;;;8.00;99.90;;;;;;5049409;28;20548;-78
2023/12/19 06:47:35;;;;;;;9.77;6.15;;;8.00;99.90;;;;;;5048817;28;20102;-79
2023/12/19 06:50:03;;;;;;;10.23;6.32;;;8.00;99.90;;;;;;5047480;28;20496;-79
2023/12/19 06:52:29;;;;;;;11.52;6.85;;;8.00;99.90;;;;;;5040367;28;20034;-79
2023/12/19 06:54:55;;;;;;;12.90;7.72;;;8.00;99.90;;;;;;5027788;28;20029;-78
2023/12/19 06:57:20;;;;;;;9.27;6.18;;;8.00;99.90;;;;;;5032615;28;20561;-79
2023/12/19 06:59:46;;;;;;;10.02;6.57;;;8.20;99.90;;;;;;5035933;28;20033;-79
2023/12/19 07:02:12;;;;;;;12.77;7.13;;;8.10;99.90;;;;;;5050305;28;20480;-79
2023/12/19 07:04:38;;;;;;;10.02;5.85;;;8.00;99.90;;;;;;5052192;28;20041;-78
2023/12/19 07:07:04;;;;;;;10.65;6.40;;;8.10;99.90;;;;;;5069086;28;20385;-78
2023/12/19 07:09:29;;;;;;;11.02;7.28;;;8.00;99.90;;;;;;5048136;28;20064;-78
2023/12/19 07:11:55;;;;;;;8.98;6.10;;;8.20;99.90;;;;;;5050458;28;20029;-79
2023/12/19 07:14:21;;;;;;;9.40;6.53;;;8.20;99.90;;;;;;5046962;28;20129;-79
2023/12/19 07:16:48;;;;;;;11.32;6.55;;;8.10;99.90;;;;;;5049741;28;20107;-78
2023/12/19 07:19:14;;;;;;;9.95;6.80;;;8.10;99.90;;;;;;5047540;28;20419;-79
2023/12/19 07:21:39;;;;;;;9.52;6.20;;;8.10;99.90;;;;;;5050096;28;20412;-78
2023/12/19 07:24:05;;;;;;;8.02;5.50;;;8.10;99.90;;;;;;5053078;28;20091;-78
2023/12/19 07:26:31;;;;;;;7.93;5.55;;;8.10;99.90;;;;;;5051253;28;20032;-78
2023/12/19 07:28:58;;;;;;;8.85;5.80;;;8.40;99.90;;;;;;5048409;28;20043;-78
2023/12/19 07:31:31;;;;;;;8.35;5.20;;;8.10;99.90;;;;;;5033018;28;20037;-78
2023/12/19 07:33:59;;;;;;;7.53;5.07;;;8.10;99.90;;;;;;5041524;28;20028;-78
2023/12/19 07:36:26;;;;;;;7.65;5.40;;;8.20;99.90;;;;;;5049870;28;20037;-78
2023/12/19 07:38:52;;;;;;;8.00;5.50;;;8.10;99.90;;;;;;5050639;28;20399;-77
2023/12/19 07:41:18;;;;;;;8.40;5.40;;;8.10;99.90;;;;;;5042183;28;20075;-79
2023/12/19 07:43:44;;;;;;;7.85;4.97;;;8.00;99.90;;;;;;5051079;28;20393;-78
2023/12/19 07:46:10;;;;;;;7.38;4.55;;;8.10;99.90;;;;;;5049950;28;20083;-78
2023/12/19 07:48:36;;;;;;;7.65;5.15;;;8.10;99.90;;;;;;5049883;28;20050;-79
2023/12/19 07:51:03;;;;;;;6.95;4.95;;;8.10;99.90;;;;;;5032679;28;20025;-78
2023/12/19 07:53:29;;;;;;;7.05;5.00;;;8.30;99.90;;;;;;5048145;28;20045;-78
2023/12/19 07:55:58;;;;;;;7.38;4.63;;;8.10;99.90;;;;;;5031311;28;20115;-78
2023/12/19 07:58:24;;;;;;;7.47;4.22;;;8.20;99.90;;;;;;5033135;28;20404;-79
2023/12/19 08:00:50;;;;;;;6.32;4.32;;;8.20;99.90;;;;;;5078729;28;20042;-79
2023/12/19 08:03:16;;;;;;;7.60;4.47;;;8.10;99.90;;;;;;5051135;28;20512;-79
2023/12/19 08:05:48;;;;;;;6.57;4.63;;;8.40;99.90;;;;;;5051456;28;20068;-78
2023/12/19 08:08:14;;;;;;;7.35;4.45;;;8.40;99.90;;;;;;5051371;28;20550;-78
2023/12/19 08:10:40;;;;;;;5.97;4.40;;;8.40;99.90;;;;;;5050159;28;20082;-78
2023/12/19 08:13:05;;;;;;;6.13;4.47;;;8.20;99.90;;;;;;5051074;28;20123;-78
2023/12/19 08:15:31;;;;;;;8.77;4.53;;;8.20;99.90;;;;;;5051329;28;20119;-78
2023/12/19 08:17:56;;;;;;;6.68;4.53;;;8.40;99.90;;;;;;5050891;28;20648;-78
2023/12/19 08:20:22;;;;;;;6.13;3.92;;;8.60;99.90;;;;;;5051238;28;20029;-79
2023/12/19 08:22:49;;;;;;;7.57;4.28;;;8.40;99.90;;;;;;5049281;28;20056;-80
2023/12/19 08:25:14;;;;;;;7.18;4.90;;;8.30;99.90;;;;;;5051410;28;20429;-78
2023/12/19 08:27:40;;;;;;;7.90;4.82;;;8.20;99.90;;;;;;5050805;28;20163;-79
2023/12/19 08:30:07;;;;;;;7.63;4.97;;;8.40;99.90;;;;;;5051211;28;20408;-79
2023/12/19 08:32:33;;;;;;;8.95;5.85;;;8.30;99.90;;;;;;5042644;28;20496;-79
2023/12/19 08:34:59;;;;;;;8.15;5.38;;;8.40;99.90;;;;;;5050062;28;20041;-79
2023/12/19 08:37:25;;;;;;;8.43;5.65;;;8.40;99.90;;;;;;5033675;28;20424;-79
2023/12/19 08:39:54;;;;;;;11.52;6.68;;;8.30;99.90;;;;;;5050269;28;20032;-79
2023/12/19 08:42:23;;;;;;;9.80;6.63;;;8.50;99.90;;;;;;5058335;28;20216;-78
2023/12/19 08:44:51;;;;;;;11.20;7.25;;;8.60;99.90;;;;;;5065538;28;20423;-79
2023/12/19 08:47:17;;;;;;;9.63;6.13;;;8.40;99.90;;;;;;5050330;28;20107;-78
2023/12/19 08:49:43;;;;;;;9.73;6.38;;;8.30;99.90;;;;;;5050479;28;20122;-79
2023/12/19 08:52:12;;;;;;;9.57;6.80;;;8.50;99.90;;;;;;5049908;28;20057;-79
2023/12/19 08:54:38;;;;;;;9.38;6.30;;;8.40;99.90;;;;;;5049318;28;20045;-78
2023/12/19 08:57:04;;;;;;;10.82;6.70;;;8.50;99.90;;;;;;5049092;28;20043;-78
2023/12/19 08:59:30;;;;;;;11.20;7.18;;;8.60;99.90;;;;;;5049111;28;20121;-79
2023/12/19 09:01:56;;;;;;;10.10;7.00;;;8.60;99.90;;;;;;5049324;28;20068;-78
2023/12/19 09:04:22;;;;;;;10.30;6.88;;;8.80;99.90;;;;;;5032530;28;20033;-79
2023/12/19 09:06:51;;;;;;;11.35;6.93;;;8.50;99.90;;;;;;5049289;28;20032;-79
2023/12/19 09:09:16;;;;;;;10.32;6.75;;;8.50;99.90;;;;;;5047673;28;20132;-79
2023/12/19 09:11:42;;;;;;;10.88;6.28;;;8.50;99.90;;;;;;5046723;28;20396;-79
2023/12/19 09:14:12;;;;;;;9.60;6.32;;;8.50;99.90;;;;;;5047857;28;20040;-79
2023/12/19 09:16:38;;;;;;;9.02;6.13;;;8.60;99.90;;;;;;5047895;28;20497;-79
2023/12/19 09:19:03;;;;;;;10.18;6.72;;;8.80;99.90;;;;;;5048064;28;20033;-79
2023/12/19 09:21:29;;;;;;;10.07;6.93;;;8.50;99.90;;;;;;5047459;28;20091;-79
2023/12/19 09:23:55;;;;;;;12.07;6.13;;;8.80;99.90;;;;;;5046569;28;20468;-79
2023/12/19 09:26:20;;;;;;;8.30;5.90;;;8.70;99.90;;;;;;5049395;28;20512;-79
2023/12/19 09:28:46;;;;;;;10.70;6.75;;;8.70;99.90;;;;;;5083323;28;20125;-79
2023/12/19 09:31:11;;;;;;;10.50;6.65;;;8.80;99.90;;;;;;5049478;28;20400;-79
2023/12/19 09:33:38;;;;;;;10.70;7.18;;;8.90;99.90;;;;;;5049223;28;20052;-78
2023/12/19 09:36:06;;;;;;;9.55;6.55;;;8.80;99.90;;;;;;5033280;28;20049;-79
2023/12/19 09:38:32;;;;;;;10.55;6.65;;;8.70;99.90;;;;;;5049540;28;20064;-79
2023/12/19 09:40:58;;;;;;;10.85;6.55;;;9.00;99.90;;;;;;5049345;28;20036;-79
2023/12/19 09:43:23;;;;;;;11.10;6.63;;;8.90;99.90;;;;;;5048958;28;20568;-80
2023/12/19 09:45:51;;;;;;;9.63;6.03;;;8.80;99.90;;;;;;5032347;28;20037;-79
2023/12/19 09:48:18;;;;;;;9.57;6.47;;;8.80;99.90;;;;;;5082559;28;20029;-79
2023/12/19 09:50:46;;;;;;;8.70;5.95;;;8.80;99.90;;;;;;5047743;28;20098;-79
2023/12/19 09:53:14;;;;;;;8.73;6.05;;;8.80;99.90;;;;;;5049043;28;20032;-79
2023/12/19 09:55:43;;;;;;;9.27;6.25;;;8.90;99.90;;;;;;5049378;28;20080;-79
2023/12/19 09:58:11;;;;;;;9.27;6.43;;;8.90;99.90;;;;;;5032268;28;20561;-79
2023/12/19 10:00:39;;;;;;;9.07;6.18;;;8.80;99.90;;;;;;5049080;28;20041;-79
2023/12/19 10:03:05;;;;;;;9.73;6.50;;;9.00;99.90;;;;;;5049083;28;20069;-79
2023/12/19 10:05:31;;;;;;;9.35;5.93;;;8.80;99.90;;;;;;5049706;28;20033;-79
2023/12/19 10:07:57;;;;;;;9.02;6.30;;;8.80;99.90;;;;;;5049303;28;20048;-79
2023/12/19 10:10:43;;;;;;;11.13;7.03;;;8.80;99.90;;;;;;5048961;28;20405;-79
2023/12/19 10:13:09;;;;;;;11.40;6.90;;;8.90;99.90;;;;;;5043379;28;20041;-79
2023/12/19 10:15:35;;;;;;;10.23;6.63;;;8.90;99.90;;;;;;5079894;28;20488;-79
2023/12/19 10:18:03;;;;;;;9.30;6.35;;;8.90;99.90;;;;;;5045045;28;20033;-79
2023/12/19 10:20:29;;;;;;;11.43;7.28;;;9.10;99.90;;;;;;5049106;28;20048;-79
2023/12/19 10:23:02;;;;;;;10.85;7.03;;;8.80;99.90;;;;;;5048386;28;20044;-78
2023/12/19 10:25:27;;;;;;;11.60;7.40;;;9.10;99.90;;;;;;5046851;28;20037;-79
2023/12/19 10:28:09;;;;;;;9.88;6.55;;;9.00;99.90;;;;;;5046722;28;20039;-79
2023/12/19 10:30:38;;;;;;;9.77;7.25;;;8.90;99.90;;;;;;5046679;28;20479;-79
2023/12/19 10:33:04;;;;;;;11.02;6.85;;;9.00;99.90;;;;;;5046598;28;20044;-79
2023/12/19 10:35:38;;;;;;;12.07;7.25;;;9.00;99.90;;;;;;5084085;28;20051;-78
2023/12/19 10:38:04;;;;;;;11.43;6.97;;;9.00;99.90;;;;;;5050855;28;20409;-78
2023/12/19 10:40:31;;;;;;;11.43;7.13;;;9.00;99.90;;;;;;5050853;28;20048;-79
2023/12/19 10:42:57;;;;;;;11.80;7.43;;;9.20;99.90;;;;;;5033879;28;20039;-79
2023/12/19 10:45:24;;;;;;;12.45;7.80;;;9.10;99.90;;;;;;5053860;28;20033;-79
2023/12/19 10:47:50;;;;;;;11.48;7.68;;;9.10;99.90;;;;;;5051305;28;20395;-79
2023/12/19 10:50:16;;;;;;;10.98;7.10;;;9.10;99.90;;;;;;5050822;28;20037;-79
2023/12/19 10:52:44;;;;;;;11.32;7.60;;;9.10;99.90;;;;;;5052807;28;20118;-79
2023/12/19 10:55:15;;;;;;;12.52;7.22;;;9.10;99.90;;;;;;5036293;28;20041;-79
2023/12/19 10:57:47;;;;;;;11.77;7.32;;;9.10;99.90;;;;;;5052535;28;20076;-79
2023/12/19 11:00:21;;;;;;;12.45;7.85;;;9.20;99.90;;;;;;5053027;28;20467;-79
2023/12/19 11:02:47;;;;;;;12.93;8.00;;;9.10;99.90;;;;;;5052512;28;20084;-78
2023/12/19 11:05:31;;;;;;;10.32;6.93;;;9.30;99.90;;;;;;5052510;28;20320;-79
2023/12/19 11:08:04;;;;;;;11.63;7.68;;;9.20;99.90;;;;;;5086099;28;20045;-79
2023/12/19 11:10:36;;;;;;;11.30;7.63;;;9.20;99.90;;;;;;5052613;28;20084;-80
2023/12/19 11:13:03;;;;;;;12.90;8.13;;;9.20;99.90;;;;;;5044244;28;20116;-79
2023/12/19 11:15:31;;;;;;;12.63;8.30;;;9.30;99.90;;;;;;5052656;28;20411;-80
2023/12/19 11:18:15;;;;;;;13.32;8.20;;;9.30;99.90;;;;;;5052361;28;20076;-79
2023/12/19 11:20:56;;;;;;;12.82;8.00;;;9.30;99.90;;;;;;5052346;28;20142;-79
2023/12/19 11:24:05;;;;;;;11.27;7.70;;;9.20;99.90;;;;;;5047799;28;20568;-79
2023/12/19 11:26:41;;;;;;;10.15;7.20;;;9.30;99.90;;;;;;5021482;28;20103;-79
2023/12/19 11:29:06;;;;;;;10.13;7.20;;;9.30;99.90;;;;;;5044895;28;20057;-79
2023/12/19 11:31:33;;;;;;;11.18;7.63;;;9.30;99.90;;;;;;5052116;28;20405;-79
2023/12/19 11:34:19;;;;;;;10.95;7.60;;;9.30;99.90;;;;;;5051974;28;20029;-79
2023/12/19 11:36:46;;;;;;;9.68;7.22;;;9.30;99.90;;;;;;5035383;28;20040;-79
2023/12/19 11:39:22;;;;;;;11.20;7.57;;;9.30;99.90;;;;;;5052062;28;20120;-80
2023/12/19 11:41:48;;;;;;;11.10;7.55;;;9.40;99.90;;;;;;5051744;28;20056;-79
2023/12/19 11:44:34;;;;;;;8.70;6.72;;;9.30;99.90;;;;;;5051561;28;20029;-79
2023/12/19 11:47:18;;;;;;;9.65;6.78;;;9.30;99.90;;;;;;5035285;28;20492;-79
2023/12/19 11:49:45;;;;;;;9.25;6.88;;;9.30;99.90;;;;;;5051552;28;20047;-79
2023/12/19 11:52:33;;;;;;;9.52;6.68;;;9.30;99.90;;;;;;5051446;28;20068;-79
2023/12/19 11:55:05;;;;;;;8.32;6.47;;;9.30;99.90;;;;;;5052752;28;20063;-79
2023/12/19 11:57:32;;;;;;;8.20;5.55;;;9.30;99.90;;;;;;5053213;28;20036;-79
2023/12/19 12:00:00;;;;;;;8.20;5.70;;;9.40;99.90;;;;;;5052680;28;20040;-79
2023/12/19 12:02:34;;;;;;;7.70;5.45;;;9.30;99.90;;;;;;5051335;28;20116;-79
2023/12/19 12:05:07;;;;;;;8.90;5.95;;;9.30;99.90;;;;;;5051370;28;20511;-79
2023/12/19 12:07:32;;;;;;;9.38;6.18;;;9.30;99.90;;;;;;5051593;28;20040;-79
2023/12/19 12:10:06;;;;;;;8.82;5.80;;;9.30;99.90;;;;;;5051259;28;20045;-80
2023/12/19 12:12:35;;;;;;;7.57;5.63;;;9.30;99.90;;;;;;5050078;28;20051;-79
2023/12/19 12:15:21;;;;;;;7.65;5.35;;;9.30;99.90;;;;;;5082170;28;20037;-80
2023/12/19 12:17:50;;;;;;;6.75;4.72;;;9.20;99.90;;;;;;5051433;28;20060;-79
2023/12/19 12:20:25;;;;;;;6.18;4.90;;;9.20;99.90;;;;;;5051182;28;20037;-79
2023/12/19 12:22:52;;;;;;;6.80;5.00;;;9.20;99.90;;;;;;5051014;28;20037;-79
2023/12/19 12:25:19;;;;;;;8.25;5.53;;;9.20;99.90;;;;;;5051091;28;20041;-79
2023/12/19 12:27:45;;;;;;;7.00;4.97;;;9.20;99.90;;;;;;5050298;28;20044;-79
2023/12/19 12:30:11;;;;;;;6.85;5.22;;;9.20;99.90;;;;;;5034452;28;20029;-79
2023/12/19 12:32:38;;;;;;;7.68;4.95;;;9.20;99.90;;;;;;5050856;28;20048;-80
2023/12/19 12:35:28;;;;;;;7.50;4.75;;;9.10;99.90;;;;;;5043068;28;20102;-79
2023/12/19 12:38:06;;;;;;;8.50;5.05;;;9.10;99.90;;;;;;5051035;28;20124;-79
2023/12/19 12:40:33;;;;;;;7.05;5.10;;;9.10;99.90;;;;;;5050133;28;20531;-79
2023/12/19 12:43:24;;;;;;;8.40;5.03;;;9.20;99.90;;;;;;5050280;28;20115;-79
2023/12/19 12:46:00;;;;;;;7.65;5.35;;;9.10;99.90;;;;;;5050563;28;20037;-79